SCSE

Details ICAO SCSE (LSC)
Name LA FLORIDA
Region Chile
Timezone America/Santiago (UTC-4.0)
Plans Departing 54
Arriving 88
Stats Elevation 481 ft / 147 m (AMSL)
Location -29.916976° -71.198962°
Runways 2
Magnetic Variation 0.203° E
Sunrise 2018-06-23 11:41:41 UTC / 2018-06-23 07:41:41 Local
Sunset 2018-06-23 21:54:49 UTC / 2018-06-23 17:54:49 Local
Advertisement - Login to hide

Runways

ID Width Length Bearing (true) Bearing (mag) Surface Threshold Offset Overrun Length
11 148 ft / 45 m 6,346 ft / 1,934 m 116.04° 115.84° Asphalt 0 ft / 0 m 100 ft / 30 m
11R 105 ft / 32 m 4,452 ft / 1,357 m 116.04° 115.84° Dirt 0 ft / 0 m 0 ft / 0 m
29 148 ft / 45 m 6,346 ft / 1,934 m 296.03° 295.83° Asphalt 0 ft / 0 m 100 ft / 30 m
29L 105 ft / 32 m 4,452 ft / 1,357 m 296.04° 295.84° Dirt 0 ft / 0 m 0 ft / 0 m

Map

Weather


0- 5 10 15 20 25 30 35+ Temperature / ° C

Clouds and Precipitation
Forecast for 2018-06-23 12:00 UTC. Updated 2 hours ago

Ground ~20,000 ft ~40,000 ft Winds

METAR

SCSE 231100Z 00000KT 9999 OVC025 11/09 Q1019

TAF

TAF AMD SCSE 230605Z 2307/2406 12004KT 8000 OVC013 TX13/2319Z TN09/ 2311Z TEMPO 2307/2314 00000KT 3000 DZ BR BKN004 OVC010 BECMG 2318/ 2320 27012KT 9999 SCT013 BKN018 BECMG 2320/2322 20006KT SCT020 BKN150 BECMG 2400/2402 12004KT

Frequencies

Ground 121.90 MHz GND
Approach 128.10 MHz SANTIAGO APP
Tower 118.60 MHz LA SERENA TWR
Warning: Do not use this data for real-world aviation or navigation. No guarantee of current accuracy is given.